RYR7VV EICK-LERS
Flight info
| Callsign | RYR7VV |
|---|---|
| Flight time | 2h 5m |
| Altitude | 37000 |
| Route | ORTOM1S ORTOM DCT TUVEN DCT TULTA/N0436F370 DCT TURDO DCT INCEF DCT NENEM P152 PPN DCT TURPU DCT GOSVI DCT RONKO/N0431F380 M601 POSSY |
| Aircraft | B738/M-SDE2E3FGHIRWXY/LB1 |
Departure
| Time | 2026-04-23 11:29 |
|---|---|
| Airport | Cork International Airport (EICK) |
Arrival
| Time | 2026-04-23 13:34 |
|---|---|
| Airport | Reus Airport (LERS) |
| Time | Latitude | Longitude | Altitude | Speed | Heading |
|---|---|---|---|---|---|
| 2026-04-23 10:43 | 51.84979 | -8.49137 | 502 ft | 0 kts | 70° |
| 2026-04-23 11:22 | 51.84975 | -8.49153 | 502 ft | 4 kts | 70° |
| 2026-04-23 11:22 | 51.84966 | -8.49194 | 502 ft | 4 kts | 70° |
| 2026-04-23 11:22 | 51.84958 | -8.49228 | 502 ft | 4 kts | 65° |
| 2026-04-23 11:22 | 51.84943 | -8.49260 | 502 ft | 4 kts | 22° |
| 2026-04-23 11:23 | 51.84918 | -8.49265 | 502 ft | 4 kts | 346° |
| 2026-04-23 11:23 | 51.84896 | -8.49253 | 502 ft | 1 kts | 339° |
| 2026-04-23 11:25 | 51.84898 | -8.49254 | 502 ft | 2 kts | 340° |
| 2026-04-23 11:26 | 51.84923 | -8.49266 | 502 ft | 6 kts | 346° |
| 2026-04-23 11:26 | 51.84973 | -8.49286 | 502 ft | 8 kts | 343° |
| 2026-04-23 11:26 | 51.85031 | -8.49319 | 502 ft | 9 kts | 340° |
| 2026-04-23 11:26 | 51.85088 | -8.49353 | 502 ft | 9 kts | 340° |
| 2026-04-23 11:27 | 51.85140 | -8.49397 | 501 ft | 8 kts | 307° |
| 2026-04-23 11:27 | 51.85121 | -8.49494 | 491 ft | 11 kts | 211° |
| 2026-04-23 11:27 | 51.85046 | -8.49552 | 485 ft | 11 kts | 205° |
| 2026-04-23 11:27 | 51.84991 | -8.49612 | 485 ft | 10 kts | 181° |
| 2026-04-23 11:28 | 51.84918 | -8.49574 | 480 ft | 19 kts | 159° |
| 2026-04-23 11:28 | 51.84566 | -8.49365 | 483 ft | 90 kts | 159° |
| 2026-04-23 11:28 | 51.83766 | -8.48897 | 469 ft | 152 kts | 159° |
| 2026-04-23 11:28 | 51.82700 | -8.48349 | 1070 ft | 158 kts | 158° |
| 2026-04-23 11:29 | 51.81671 | -8.47864 | 2080 ft | 155 kts | 158° |
| 2026-04-23 11:29 | 51.80555 | -8.47297 | 2412 ft | 181 kts | 157° |
| 2026-04-23 11:29 | 51.79287 | -8.46715 | 2806 ft | 199 kts | 162° |
| 2026-04-23 11:29 | 51.77835 | -8.46236 | 2981 ft | 229 kts | 165° |
| 2026-04-23 11:30 | 51.76190 | -8.45705 | 3439 ft | 247 kts | 165° |
| 2026-04-23 11:30 | 51.74516 | -8.45183 | 4425 ft | 243 kts | 166° |
| 2026-04-23 11:30 | 51.72857 | -8.44659 | 5300 ft | 246 kts | 166° |
| 2026-04-23 11:30 | 51.71169 | -8.44118 | 6112 ft | 249 kts | 166° |
| 2026-04-23 11:31 | 51.69460 | -8.43566 | 6862 ft | 253 kts | 166° |
| 2026-04-23 11:31 | 51.67725 | -8.43014 | 7622 ft | 255 kts | 167° |
| 2026-04-23 11:31 | 51.65972 | -8.42450 | 8410 ft | 258 kts | 167° |
| 2026-04-23 11:31 | 51.64810 | -8.42076 | 8938 ft | 258 kts | 167° |
| 2026-04-23 11:32 | 51.63036 | -8.41507 | 9712 ft | 262 kts | 168° |
| 2026-04-23 11:32 | 51.61236 | -8.40929 | 10466 ft | 266 kts | 168° |
| 2026-04-23 11:32 | 51.59358 | -8.40320 | 10738 ft | 286 kts | 168° |
| 2026-04-23 11:32 | 51.56643 | -8.39435 | 10988 ft | 314 kts | 168° |
| 2026-04-23 11:33 | 51.54460 | -8.38746 | 11424 ft | 323 kts | 170° |
| 2026-04-23 11:33 | 51.52949 | -8.38438 | 11866 ft | 326 kts | 173° |
| 2026-04-23 11:33 | 51.50683 | -8.38134 | 12574 ft | 328 kts | 174° |
| 2026-04-23 11:33 | 51.48386 | -8.37875 | 13241 ft | 332 kts | 174° |
| 2026-04-23 11:34 | 51.46059 | -8.37607 | 13915 ft | 337 kts | 174° |
| 2026-04-23 11:34 | 51.43707 | -8.37318 | 14561 ft | 342 kts | 174° |
| 2026-04-23 11:34 | 51.41334 | -8.37016 | 15246 ft | 343 kts | 174° |
| 2026-04-23 11:34 | 51.38969 | -8.36706 | 15864 ft | 348 kts | 174° |
| 2026-04-23 11:35 | 51.36549 | -8.36385 | 16566 ft | 350 kts | 174° |
| 2026-04-23 11:35 | 51.34113 | -8.36058 | 17251 ft | 353 kts | 174° |
| 2026-04-23 11:35 | 51.31659 | -8.35726 | 17916 ft | 356 kts | 174° |
| 2026-04-23 11:35 | 51.29175 | -8.35391 | 18528 ft | 360 kts | 174° |
| 2026-04-23 11:36 | 51.26664 | -8.35053 | 19095 ft | 364 kts | 174° |
| 2026-04-23 11:36 | 51.24139 | -8.34709 | 19666 ft | 366 kts | 174° |
| 2026-04-23 11:36 | 51.21591 | -8.34357 | 20230 ft | 369 kts | 174° |
| 2026-04-23 11:36 | 51.19021 | -8.34002 | 20780 ft | 372 kts | 174° |
| 2026-04-23 11:37 | 51.16432 | -8.33646 | 21328 ft | 375 kts | 174° |
| 2026-04-23 11:37 | 51.13817 | -8.33287 | 21833 ft | 379 kts | 174° |
| 2026-04-23 11:37 | 51.11172 | -8.32924 | 22317 ft | 383 kts | 174° |
| 2026-04-23 11:37 | 51.08508 | -8.32560 | 22868 ft | 385 kts | 174° |
| 2026-04-23 11:38 | 51.05829 | -8.32195 | 23402 ft | 388 kts | 174° |
| 2026-04-23 11:38 | 51.03130 | -8.31827 | 23877 ft | 391 kts | 174° |
| 2026-04-23 11:38 | 51.00408 | -8.31455 | 24291 ft | 394 kts | 174° |
| 2026-04-23 11:38 | 50.97672 | -8.31082 | 24699 ft | 396 kts | 174° |
| 2026-04-23 11:39 | 50.94916 | -8.30708 | 25116 ft | 399 kts | 175° |
| 2026-04-23 11:39 | 50.92145 | -8.30331 | 25545 ft | 400 kts | 175° |
| 2026-04-23 11:39 | 50.89401 | -8.29959 | 25963 ft | 402 kts | 175° |
| 2026-04-23 11:39 | 50.86601 | -8.29579 | 26322 ft | 405 kts | 175° |
| 2026-04-23 11:40 | 50.83778 | -8.29197 | 26680 ft | 409 kts | 175° |
| 2026-04-23 11:40 | 50.80938 | -8.28811 | 27073 ft | 410 kts | 175° |
| 2026-04-23 11:40 | 50.78046 | -8.28420 | 27472 ft | 413 kts | 175° |
| 2026-04-23 11:40 | 50.75428 | -8.28068 | 27839 ft | 415 kts | 175° |
| 2026-04-23 11:41 | 50.72538 | -8.27679 | 28189 ft | 418 kts | 175° |
| 2026-04-23 11:41 | 50.69627 | -8.27288 | 28499 ft | 422 kts | 175° |
| 2026-04-23 11:41 | 50.66699 | -8.26895 | 28905 ft | 423 kts | 175° |
| 2026-04-23 11:41 | 50.63765 | -8.26500 | 29311 ft | 424 kts | 175° |
| 2026-04-23 11:42 | 50.60817 | -8.26105 | 29628 ft | 427 kts | 175° |
| 2026-04-23 11:42 | 50.57845 | -8.25707 | 29911 ft | 430 kts | 175° |
| 2026-04-23 11:42 | 50.54857 | -8.25306 | 30327 ft | 430 kts | 175° |
| 2026-04-23 11:42 | 50.51891 | -8.24910 | 30826 ft | 426 kts | 175° |
| 2026-04-23 11:43 | 50.48948 | -8.24517 | 31285 ft | 424 kts | 175° |
| 2026-04-23 11:43 | 50.46006 | -8.24125 | 31607 ft | 424 kts | 175° |
| 2026-04-23 11:43 | 50.43059 | -8.23733 | 31919 ft | 425 kts | 175° |
| 2026-04-23 11:43 | 50.40115 | -8.23342 | 32314 ft | 424 kts | 176° |
| 2026-04-23 11:44 | 50.37187 | -8.22954 | 32768 ft | 421 kts | 176° |
| 2026-04-23 11:44 | 50.34272 | -8.22567 | 33156 ft | 420 kts | 176° |
| 2026-04-23 11:44 | 50.31361 | -8.22182 | 33501 ft | 420 kts | 176° |
| 2026-04-23 11:44 | 50.28453 | -8.21797 | 33852 ft | 419 kts | 176° |
| 2026-04-23 11:45 | 50.25554 | -8.21414 | 34243 ft | 417 kts | 176° |
| 2026-04-23 11:45 | 50.22666 | -8.21032 | 34569 ft | 416 kts | 176° |
| 2026-04-23 11:45 | 50.19784 | -8.20652 | 34843 ft | 416 kts | 176° |
| 2026-04-23 11:45 | 50.16901 | -8.20274 | 35113 ft | 415 kts | 176° |
| 2026-04-23 11:46 | 50.14022 | -8.19896 | 35401 ft | 415 kts | 176° |
| 2026-04-23 11:46 | 50.11150 | -8.19519 | 35685 ft | 414 kts | 176° |
| 2026-04-23 11:46 | 50.08282 | -8.19142 | 35973 ft | 413 kts | 176° |
| 2026-04-23 11:46 | 50.05419 | -8.18767 | 36236 ft | 413 kts | 176° |
| 2026-04-23 11:47 | 50.02558 | -8.18392 | 36497 ft | 412 kts | 176° |
| 2026-04-23 11:47 | 49.99739 | -8.18024 | 36769 ft | 412 kts | 176° |
| 2026-04-23 11:47 | 49.96880 | -8.17651 | 37037 ft | 411 kts | 176° |
| 2026-04-23 11:47 | 49.94036 | -8.17280 | 37239 ft | 412 kts | 176° |
| 2026-04-23 11:48 | 49.91158 | -8.16906 | 37204 ft | 416 kts | 176° |
| 2026-04-23 11:48 | 49.85392 | -8.16156 | 37227 ft | 415 kts | 176° |
| 2026-04-23 11:49 | 49.79690 | -8.15415 | 37214 ft | 408 kts | 176° |
| 2026-04-23 11:49 | 49.74037 | -8.14684 | 37232 ft | 407 kts | 176° |
| 2026-04-23 11:50 | 49.68399 | -8.13957 | 37212 ft | 406 kts | 176° |
| 2026-04-23 11:50 | 49.62774 | -8.13233 | 37207 ft | 405 kts | 176° |
| 2026-04-23 11:51 | 49.57169 | -8.12513 | 37198 ft | 404 kts | 176° |
| 2026-04-23 11:51 | 49.51575 | -8.11797 | 37202 ft | 403 kts | 176° |
| 2026-04-23 11:52 | 49.46023 | -8.11087 | 37191 ft | 403 kts | 176° |
| 2026-04-23 11:52 | 49.40437 | -8.10369 | 37198 ft | 403 kts | 176° |
| 2026-04-23 11:53 | 49.34843 | -8.09656 | 37197 ft | 404 kts | 176° |
| 2026-04-23 11:53 | 49.29240 | -8.08947 | 37194 ft | 404 kts | 176° |
| 2026-04-23 11:54 | 49.23626 | -8.08238 | 37187 ft | 405 kts | 176° |
| 2026-04-23 11:54 | 49.17992 | -8.07527 | 37184 ft | 406 kts | 176° |
| 2026-04-23 11:55 | 49.12359 | -8.06816 | 37187 ft | 406 kts | 176° |
| 2026-04-23 11:55 | 49.06720 | -8.06105 | 37185 ft | 407 kts | 176° |
| 2026-04-23 11:56 | 49.01101 | -8.05399 | 37170 ft | 408 kts | 176° |
| 2026-04-23 11:56 | 48.95442 | -8.04690 | 37174 ft | 408 kts | 176° |
| 2026-04-23 11:57 | 48.89779 | -8.03982 | 37181 ft | 409 kts | 176° |
| 2026-04-23 11:57 | 48.84109 | -8.03275 | 37173 ft | 409 kts | 176° |
| 2026-04-23 11:58 | 48.78437 | -8.02571 | 37154 ft | 409 kts | 176° |
| 2026-04-23 11:58 | 48.72769 | -8.01866 | 37170 ft | 409 kts | 176° |
| 2026-04-23 11:59 | 48.67101 | -8.01163 | 37174 ft | 408 kts | 176° |
| 2026-04-23 11:59 | 48.61435 | -8.00453 | 37156 ft | 409 kts | 174° |
| 2026-04-23 12:00 | 48.55960 | -7.98174 | 37171 ft | 411 kts | 158° |
| 2026-04-23 12:00 | 48.51018 | -7.93926 | 37172 ft | 412 kts | 150° |
| 2026-04-23 12:01 | 48.46163 | -7.89312 | 37168 ft | 412 kts | 150° |
| 2026-04-23 12:01 | 48.41300 | -7.84723 | 37169 ft | 412 kts | 150° |
| 2026-04-23 12:02 | 48.36427 | -7.80171 | 37148 ft | 412 kts | 150° |
| 2026-04-23 12:02 | 48.31546 | -7.75640 | 37151 ft | 412 kts | 150° |
| 2026-04-23 12:03 | 48.26662 | -7.71119 | 37145 ft | 412 kts | 150° |
| 2026-04-23 12:03 | 48.21773 | -7.66603 | 37152 ft | 413 kts | 150° |
| 2026-04-23 12:04 | 48.16870 | -7.62083 | 37147 ft | 415 kts | 151° |
| 2026-04-23 12:04 | 48.11939 | -7.57552 | 37152 ft | 416 kts | 150° |
| 2026-04-23 12:05 | 48.06997 | -7.53021 | 37149 ft | 417 kts | 150° |
| 2026-04-23 12:05 | 48.02044 | -7.48485 | 37150 ft | 418 kts | 150° |
| 2026-04-23 12:06 | 47.97111 | -7.43981 | 37149 ft | 418 kts | 151° |
| 2026-04-23 12:06 | 47.89652 | -7.37191 | 37139 ft | 419 kts | 151° |
| 2026-04-23 12:07 | 47.84681 | -7.32678 | 37138 ft | 418 kts | 151° |
| 2026-04-23 12:07 | 47.79712 | -7.28174 | 37140 ft | 418 kts | 151° |
| 2026-04-23 12:08 | 47.74745 | -7.23685 | 37136 ft | 417 kts | 151° |
| 2026-04-23 12:08 | 47.69785 | -7.19212 | 37139 ft | 417 kts | 151° |
| 2026-04-23 12:09 | 47.64831 | -7.14754 | 37136 ft | 416 kts | 151° |
| 2026-04-23 12:09 | 47.59882 | -7.10313 | 37128 ft | 416 kts | 151° |
| 2026-04-23 12:10 | 47.54936 | -7.05879 | 37133 ft | 415 kts | 151° |
| 2026-04-23 12:10 | 47.49986 | -7.01454 | 37136 ft | 417 kts | 151° |
| 2026-04-23 12:11 | 47.45018 | -6.97016 | 37132 ft | 418 kts | 150° |
| 2026-04-23 12:11 | 47.40256 | -6.92042 | 37136 ft | 420 kts | 146° |
| 2026-04-23 12:12 | 47.35560 | -6.86885 | 37124 ft | 421 kts | 146° |
| 2026-04-23 12:12 | 47.30852 | -6.81736 | 37130 ft | 422 kts | 146° |
| 2026-04-23 12:13 | 47.26156 | -6.76646 | 37121 ft | 422 kts | 146° |
| 2026-04-23 12:13 | 47.21378 | -6.71495 | 37126 ft | 423 kts | 146° |
| 2026-04-23 12:14 | 47.16635 | -6.66398 | 37115 ft | 422 kts | 146° |
| 2026-04-23 12:14 | 47.11920 | -6.61342 | 37122 ft | 422 kts | 146° |
| 2026-04-23 12:15 | 47.07172 | -6.56262 | 37103 ft | 422 kts | 146° |
| 2026-04-23 12:15 | 47.02426 | -6.51195 | 37115 ft | 422 kts | 146° |
| 2026-04-23 12:16 | 46.97676 | -6.46135 | 37114 ft | 422 kts | 147° |
| 2026-04-23 12:16 | 46.92918 | -6.41079 | 37114 ft | 423 kts | 147° |
| 2026-04-23 12:17 | 46.88153 | -6.36025 | 37114 ft | 423 kts | 147° |
| 2026-04-23 12:17 | 46.83380 | -6.30974 | 37101 ft | 424 kts | 147° |
| 2026-04-23 12:18 | 46.78601 | -6.25927 | 37104 ft | 424 kts | 147° |
| 2026-04-23 12:18 | 46.73817 | -6.20890 | 37110 ft | 424 kts | 147° |
| 2026-04-23 12:19 | 46.69032 | -6.15861 | 37114 ft | 424 kts | 147° |
| 2026-04-23 12:19 | 46.64251 | -6.10847 | 37105 ft | 424 kts | 147° |
| 2026-04-23 12:20 | 46.59463 | -6.05838 | 37092 ft | 424 kts | 147° |
| 2026-04-23 12:20 | 46.54672 | -6.00836 | 37104 ft | 424 kts | 147° |
| 2026-04-23 12:21 | 46.50683 | -5.96680 | 37109 ft | 425 kts | 147° |
| 2026-04-23 12:21 | 46.45091 | -5.90867 | 37108 ft | 426 kts | 147° |
| 2026-04-23 12:22 | 46.41056 | -5.86680 | 37083 ft | 426 kts | 147° |
| 2026-04-23 12:22 | 46.36230 | -5.81685 | 37091 ft | 426 kts | 147° |
| 2026-04-23 12:23 | 46.31400 | -5.76698 | 37110 ft | 427 kts | 147° |
| 2026-04-23 12:23 | 46.26563 | -5.71710 | 37090 ft | 427 kts | 147° |
| 2026-04-23 12:24 | 46.21753 | -5.66763 | 37107 ft | 427 kts | 147° |
| 2026-04-23 12:24 | 46.16911 | -5.61794 | 37086 ft | 427 kts | 147° |
| 2026-04-23 12:25 | 46.12070 | -5.56837 | 37095 ft | 426 kts | 147° |
| 2026-04-23 12:25 | 46.07230 | -5.51895 | 37101 ft | 426 kts | 147° |
| 2026-04-23 12:26 | 46.02396 | -5.46968 | 37094 ft | 426 kts | 147° |
| 2026-04-23 12:26 | 45.97551 | -5.42042 | 37099 ft | 426 kts | 147° |
| 2026-04-23 12:27 | 45.92704 | -5.37122 | 37099 ft | 426 kts | 147° |
| 2026-04-23 12:27 | 45.87854 | -5.32209 | 37097 ft | 427 kts | 147° |
| 2026-04-23 12:28 | 45.82990 | -5.27294 | 37087 ft | 427 kts | 147° |
| 2026-04-23 12:28 | 45.78126 | -5.22385 | 37095 ft | 428 kts | 147° |
| 2026-04-23 12:29 | 45.73268 | -5.17478 | 37097 ft | 428 kts | 148° |
| 2026-04-23 12:29 | 45.68386 | -5.12596 | 37095 ft | 428 kts | 148° |
| 2026-04-23 12:30 | 45.63502 | -5.07708 | 37084 ft | 429 kts | 148° |
| 2026-04-23 12:30 | 45.58640 | -5.02847 | 37099 ft | 429 kts | 148° |
| 2026-04-23 12:31 | 45.53744 | -4.97962 | 37105 ft | 430 kts | 148° |
| 2026-04-23 12:31 | 45.49004 | -4.92714 | 37103 ft | 433 kts | 141° |
| 2026-04-23 12:32 | 45.44526 | -4.86932 | 37093 ft | 435 kts | 140° |
| 2026-04-23 12:32 | 45.40056 | -4.81117 | 37096 ft | 435 kts | 140° |
| 2026-04-23 12:33 | 45.35554 | -4.75345 | 37094 ft | 436 kts | 141° |
| 2026-04-23 12:33 | 45.31027 | -4.69600 | 37097 ft | 436 kts | 141° |
| 2026-04-23 12:34 | 45.26496 | -4.63875 | 37088 ft | 436 kts | 141° |
| 2026-04-23 12:34 | 45.21961 | -4.58157 | 37086 ft | 436 kts | 141° |
| 2026-04-23 12:35 | 45.17422 | -4.52446 | 37096 ft | 436 kts | 141° |
| 2026-04-23 12:35 | 45.12880 | -4.46742 | 37089 ft | 437 kts | 141° |
| 2026-04-23 12:36 | 45.08326 | -4.41036 | 37087 ft | 437 kts | 141° |
| 2026-04-23 12:36 | 45.03768 | -4.35343 | 37086 ft | 437 kts | 141° |
| 2026-04-23 12:37 | 44.99209 | -4.29655 | 37084 ft | 438 kts | 141° |
| 2026-04-23 12:37 | 44.94638 | -4.23965 | 37081 ft | 438 kts | 141° |
| 2026-04-23 12:38 | 44.90056 | -4.18278 | 37074 ft | 438 kts | 141° |
| 2026-04-23 12:38 | 44.85483 | -4.12608 | 37081 ft | 438 kts | 141° |
| 2026-04-23 12:39 | 44.80902 | -4.06944 | 37079 ft | 438 kts | 142° |
| 2026-04-23 12:39 | 44.76349 | -4.01328 | 37080 ft | 438 kts | 142° |
| 2026-04-23 12:40 | 44.71763 | -3.95684 | 37078 ft | 438 kts | 142° |
| 2026-04-23 12:40 | 44.67179 | -3.90053 | 37078 ft | 437 kts | 142° |
| 2026-04-23 12:41 | 44.62595 | -3.84435 | 37070 ft | 437 kts | 142° |
| 2026-04-23 12:41 | 44.58011 | -3.78829 | 37059 ft | 437 kts | 142° |
| 2026-04-23 12:42 | 44.53426 | -3.73234 | 37068 ft | 437 kts | 142° |
| 2026-04-23 12:42 | 44.48837 | -3.67646 | 37068 ft | 437 kts | 142° |
| 2026-04-23 12:43 | 44.44241 | -3.62061 | 37062 ft | 438 kts | 142° |
| 2026-04-23 12:43 | 44.39630 | -3.56473 | 37066 ft | 438 kts | 142° |
| 2026-04-23 12:44 | 44.35015 | -3.50890 | 37060 ft | 439 kts | 142° |
| 2026-04-23 12:44 | 44.30422 | -3.45346 | 37059 ft | 440 kts | 142° |
| 2026-04-23 12:45 | 44.25782 | -3.39756 | 37047 ft | 441 kts | 142° |
| 2026-04-23 12:45 | 44.21139 | -3.34182 | 37058 ft | 439 kts | 142° |
| 2026-04-23 12:46 | 44.16502 | -3.28618 | 37052 ft | 441 kts | 142° |
| 2026-04-23 12:46 | 44.11846 | -3.23039 | 37053 ft | 442 kts | 142° |
| 2026-04-23 12:47 | 44.07175 | -3.17458 | 37051 ft | 443 kts | 142° |
| 2026-04-23 12:47 | 44.02460 | -3.11928 | 37046 ft | 444 kts | 143° |
| 2026-04-23 12:48 | 43.97654 | -3.06541 | 37044 ft | 444 kts | 144° |
| 2026-04-23 12:48 | 43.92843 | -3.01166 | 37036 ft | 444 kts | 144° |
| 2026-04-23 12:49 | 43.88026 | -2.95768 | 37043 ft | 445 kts | 143° |
| 2026-04-23 12:49 | 43.83211 | -2.90369 | 37036 ft | 445 kts | 143° |
| 2026-04-23 12:50 | 43.78393 | -2.84975 | 37024 ft | 445 kts | 143° |
| 2026-04-23 12:50 | 43.73578 | -2.79601 | 37030 ft | 445 kts | 144° |
| 2026-04-23 12:51 | 43.68754 | -2.74218 | 37026 ft | 445 kts | 143° |
| 2026-04-23 12:51 | 43.63940 | -2.68859 | 37024 ft | 444 kts | 144° |
| 2026-04-23 12:52 | 43.59118 | -2.63512 | 37004 ft | 444 kts | 144° |
| 2026-04-23 12:52 | 43.54330 | -2.58216 | 37017 ft | 444 kts | 144° |
| 2026-04-23 12:53 | 43.49516 | -2.52896 | 37032 ft | 444 kts | 144° |
| 2026-04-23 12:53 | 43.44689 | -2.47573 | 37022 ft | 444 kts | 144° |
| 2026-04-23 12:54 | 43.39866 | -2.42266 | 37008 ft | 444 kts | 144° |
| 2026-04-23 12:54 | 43.35029 | -2.36954 | 37024 ft | 445 kts | 144° |
| 2026-04-23 12:55 | 43.30192 | -2.31652 | 37025 ft | 445 kts | 144° |
| 2026-04-23 12:55 | 43.25344 | -2.26353 | 37024 ft | 446 kts | 144° |
| 2026-04-23 12:56 | 43.20489 | -2.21056 | 37037 ft | 447 kts | 144° |
| 2026-04-23 12:56 | 43.15619 | -2.15750 | 37049 ft | 448 kts | 144° |
| 2026-04-23 12:57 | 43.10724 | -2.10429 | 37044 ft | 449 kts | 144° |
| 2026-04-23 12:57 | 43.05828 | -2.05124 | 37068 ft | 449 kts | 144° |
| 2026-04-23 12:58 | 43.00920 | -1.99819 | 37052 ft | 450 kts | 144° |
| 2026-04-23 12:58 | 42.96013 | -1.94521 | 37066 ft | 449 kts | 144° |
| 2026-04-23 12:59 | 42.91105 | -1.89236 | 37074 ft | 449 kts | 144° |
| 2026-04-23 12:59 | 42.86226 | -1.83988 | 37091 ft | 450 kts | 144° |
| 2026-04-23 13:00 | 42.81309 | -1.78703 | 37098 ft | 450 kts | 144° |
| 2026-04-23 13:00 | 42.76400 | -1.73428 | 37104 ft | 450 kts | 142° |
| 2026-04-23 13:01 | 42.72234 | -1.66970 | 37105 ft | 455 kts | 123° |
| 2026-04-23 13:01 | 42.69487 | -1.59269 | 37109 ft | 456 kts | 115° |
| 2026-04-23 13:02 | 42.66806 | -1.51439 | 36701 ft | 457 kts | 116° |
| 2026-04-23 13:02 | 42.65436 | -1.47569 | 36346 ft | 452 kts | 117° |
| 2026-04-23 13:02 | 42.64077 | -1.43747 | 35963 ft | 448 kts | 117° |
| 2026-04-23 13:03 | 42.62731 | -1.39955 | 35596 ft | 444 kts | 116° |
| 2026-04-23 13:03 | 42.61395 | -1.36186 | 35217 ft | 441 kts | 116° |
| 2026-04-23 13:03 | 42.60068 | -1.32442 | 34834 ft | 438 kts | 117° |
| 2026-04-23 13:03 | 42.58748 | -1.28727 | 34460 ft | 436 kts | 117° |
| 2026-04-23 13:04 | 42.57435 | -1.25034 | 34100 ft | 433 kts | 117° |
| 2026-04-23 13:04 | 42.56130 | -1.21364 | 33694 ft | 431 kts | 117° |
| 2026-04-23 13:04 | 42.54832 | -1.17719 | 33309 ft | 428 kts | 117° |
| 2026-04-23 13:04 | 42.53537 | -1.14087 | 32935 ft | 425 kts | 116° |
| 2026-04-23 13:05 | 42.52254 | -1.10495 | 32578 ft | 423 kts | 116° |
| 2026-04-23 13:05 | 42.50972 | -1.06907 | 32225 ft | 421 kts | 116° |
| 2026-04-23 13:05 | 42.49699 | -1.03355 | 31866 ft | 418 kts | 116° |
| 2026-04-23 13:05 | 42.48432 | -0.99823 | 31524 ft | 415 kts | 116° |
| 2026-04-23 13:06 | 42.46343 | -0.94001 | 30944 ft | 412 kts | 116° |
| 2026-04-23 13:06 | 42.45093 | -0.90521 | 30622 ft | 410 kts | 116° |
| 2026-04-23 13:06 | 42.43847 | -0.87056 | 30267 ft | 408 kts | 116° |
| 2026-04-23 13:07 | 42.42186 | -0.82453 | 29743 ft | 405 kts | 116° |
| 2026-04-23 13:07 | 42.41367 | -0.80186 | 29492 ft | 404 kts | 116° |
| 2026-04-23 13:07 | 42.40140 | -0.76794 | 29135 ft | 400 kts | 116° |
| 2026-04-23 13:07 | 42.38918 | -0.73420 | 28785 ft | 397 kts | 116° |
| 2026-04-23 13:08 | 42.37707 | -0.70075 | 28422 ft | 395 kts | 116° |
| 2026-04-23 13:08 | 42.36502 | -0.66755 | 28075 ft | 392 kts | 116° |
| 2026-04-23 13:08 | 42.35303 | -0.63457 | 27722 ft | 390 kts | 116° |
| 2026-04-23 13:08 | 42.34123 | -0.60212 | 27379 ft | 388 kts | 116° |
| 2026-04-23 13:09 | 42.32937 | -0.56957 | 27029 ft | 385 kts | 116° |
| 2026-04-23 13:09 | 42.31753 | -0.53709 | 26688 ft | 383 kts | 116° |
| 2026-04-23 13:09 | 42.30579 | -0.50491 | 26344 ft | 381 kts | 116° |
| 2026-04-23 13:09 | 42.29408 | -0.47284 | 26009 ft | 379 kts | 116° |
| 2026-04-23 13:10 | 42.28241 | -0.44092 | 25673 ft | 378 kts | 116° |
| 2026-04-23 13:10 | 42.27079 | -0.40918 | 25351 ft | 377 kts | 116° |
| 2026-04-23 13:10 | 42.25921 | -0.37756 | 25001 ft | 375 kts | 116° |
| 2026-04-23 13:10 | 42.24765 | -0.34606 | 24653 ft | 374 kts | 116° |
| 2026-04-23 13:11 | 42.23611 | -0.31459 | 24319 ft | 373 kts | 116° |
| 2026-04-23 13:11 | 42.22463 | -0.28334 | 23987 ft | 372 kts | 116° |
| 2026-04-23 13:11 | 42.21314 | -0.25213 | 23615 ft | 372 kts | 117° |
| 2026-04-23 13:11 | 42.20160 | -0.22085 | 23221 ft | 371 kts | 117° |
| 2026-04-23 13:12 | 42.19014 | -0.18981 | 22849 ft | 369 kts | 117° |
| 2026-04-23 13:12 | 42.17876 | -0.15901 | 22530 ft | 366 kts | 117° |
| 2026-04-23 13:12 | 42.16742 | -0.12834 | 22190 ft | 364 kts | 117° |
| 2026-04-23 13:12 | 42.15615 | -0.09791 | 21846 ft | 362 kts | 117° |
| 2026-04-23 13:13 | 42.14496 | -0.06769 | 21506 ft | 360 kts | 117° |
| 2026-04-23 13:13 | 42.13381 | -0.03762 | 21184 ft | 358 kts | 117° |
| 2026-04-23 13:13 | 42.12268 | -0.00765 | 20857 ft | 356 kts | 117° |
| 2026-04-23 13:13 | 42.11163 | 0.02209 | 20520 ft | 354 kts | 116° |
| 2026-04-23 13:14 | 42.10061 | 0.05172 | 20191 ft | 353 kts | 116° |
| 2026-04-23 13:14 | 42.08963 | 0.08122 | 19866 ft | 351 kts | 116° |
| 2026-04-23 13:14 | 42.07868 | 0.11057 | 19540 ft | 350 kts | 116° |
| 2026-04-23 13:14 | 42.06777 | 0.13970 | 19211 ft | 349 kts | 118° |
| 2026-04-23 13:15 | 42.05325 | 0.16560 | 18858 ft | 347 kts | 141° |
| 2026-04-23 13:15 | 42.03421 | 0.18526 | 18536 ft | 344 kts | 145° |
| 2026-04-23 13:15 | 42.01473 | 0.20402 | 18166 ft | 344 kts | 146° |
| 2026-04-23 13:15 | 41.99524 | 0.22252 | 17812 ft | 343 kts | 146° |
| 2026-04-23 13:16 | 41.97585 | 0.24096 | 17474 ft | 340 kts | 146° |
| 2026-04-23 13:16 | 41.95682 | 0.25917 | 17153 ft | 338 kts | 146° |
| 2026-04-23 13:16 | 41.93753 | 0.27772 | 16823 ft | 336 kts | 146° |
| 2026-04-23 13:16 | 41.91886 | 0.29574 | 16516 ft | 334 kts | 146° |
| 2026-04-23 13:17 | 41.90002 | 0.31395 | 16192 ft | 333 kts | 147° |
| 2026-04-23 13:17 | 41.88070 | 0.33053 | 15907 ft | 327 kts | 158° |
| 2026-04-23 13:17 | 41.86002 | 0.34255 | 15671 ft | 321 kts | 161° |
| 2026-04-23 13:17 | 41.83932 | 0.35355 | 15415 ft | 318 kts | 161° |
| 2026-04-23 13:18 | 41.81876 | 0.36433 | 15179 ft | 316 kts | 161° |
| 2026-04-23 13:18 | 41.79840 | 0.37510 | 14950 ft | 314 kts | 161° |
| 2026-04-23 13:18 | 41.77814 | 0.38593 | 14710 ft | 313 kts | 162° |
| 2026-04-23 13:18 | 41.75800 | 0.39678 | 14466 ft | 312 kts | 161° |
| 2026-04-23 13:19 | 41.73792 | 0.40767 | 14234 ft | 310 kts | 161° |
| 2026-04-23 13:19 | 41.71794 | 0.41856 | 14002 ft | 309 kts | 161° |
| 2026-04-23 13:19 | 41.69806 | 0.42941 | 13744 ft | 308 kts | 161° |
| 2026-04-23 13:19 | 41.67826 | 0.44025 | 13485 ft | 307 kts | 161° |
| 2026-04-23 13:20 | 41.65845 | 0.45109 | 13214 ft | 306 kts | 161° |
| 2026-04-23 13:20 | 41.63878 | 0.46185 | 12951 ft | 305 kts | 161° |
| 2026-04-23 13:20 | 41.61915 | 0.47258 | 12711 ft | 303 kts | 161° |
| 2026-04-23 13:20 | 41.59968 | 0.48324 | 12461 ft | 302 kts | 160° |
| 2026-04-23 13:21 | 41.58025 | 0.49387 | 12203 ft | 301 kts | 161° |
| 2026-04-23 13:21 | 41.56086 | 0.50445 | 11937 ft | 301 kts | 161° |
| 2026-04-23 13:21 | 41.54152 | 0.51499 | 11697 ft | 300 kts | 161° |
| 2026-04-23 13:21 | 41.52225 | 0.52551 | 11450 ft | 299 kts | 162° |
| 2026-04-23 13:22 | 41.50302 | 0.53600 | 11209 ft | 299 kts | 162° |
| 2026-04-23 13:22 | 41.48401 | 0.54636 | 10976 ft | 298 kts | 162° |
| 2026-04-23 13:22 | 41.46480 | 0.55683 | 10739 ft | 298 kts | 162° |
| 2026-04-23 13:22 | 41.44562 | 0.56727 | 10498 ft | 298 kts | 162° |
| 2026-04-23 13:23 | 41.42644 | 0.57770 | 10250 ft | 297 kts | 162° |
| 2026-04-23 13:23 | 41.40734 | 0.58808 | 10024 ft | 296 kts | 161° |
| 2026-04-23 13:23 | 41.38831 | 0.59839 | 9771 ft | 295 kts | 160° |
| 2026-04-23 13:23 | 41.36935 | 0.60872 | 9510 ft | 293 kts | 161° |
| 2026-04-23 13:24 | 41.35051 | 0.61891 | 9254 ft | 291 kts | 160° |
| 2026-04-23 13:24 | 41.33183 | 0.62907 | 9001 ft | 290 kts | 161° |
| 2026-04-23 13:24 | 41.31316 | 0.63920 | 8747 ft | 288 kts | 161° |
| 2026-04-23 13:24 | 41.29466 | 0.64922 | 8492 ft | 287 kts | 161° |
| 2026-04-23 13:25 | 41.27620 | 0.65923 | 8253 ft | 286 kts | 161° |
| 2026-04-23 13:25 | 41.25784 | 0.66913 | 8011 ft | 284 kts | 160° |
| 2026-04-23 13:25 | 41.23956 | 0.67901 | 7758 ft | 283 kts | 160° |
| 2026-04-23 13:25 | 41.22146 | 0.68880 | 7547 ft | 280 kts | 160° |
| 2026-04-23 13:26 | 41.20358 | 0.69844 | 7356 ft | 276 kts | 159° |
| 2026-04-23 13:26 | 41.18581 | 0.70803 | 7089 ft | 274 kts | 159° |
| 2026-04-23 13:26 | 41.16815 | 0.71759 | 6828 ft | 274 kts | 158° |
| 2026-04-23 13:26 | 41.15053 | 0.72712 | 6553 ft | 274 kts | 158° |
| 2026-04-23 13:27 | 41.13289 | 0.73664 | 6272 ft | 273 kts | 158° |
| 2026-04-23 13:27 | 41.11535 | 0.74608 | 5969 ft | 272 kts | 158° |
| 2026-04-23 13:27 | 41.09780 | 0.75549 | 5688 ft | 271 kts | 158° |
| 2026-04-23 13:27 | 41.08034 | 0.76487 | 5420 ft | 270 kts | 158° |
| 2026-04-23 13:28 | 41.06297 | 0.77418 | 5160 ft | 269 kts | 156° |
| 2026-04-23 13:28 | 41.04698 | 0.78574 | 4842 ft | 263 kts | 135° |
| 2026-04-23 13:28 | 41.03713 | 0.80527 | 4626 ft | 254 kts | 109° |
| 2026-04-23 13:28 | 41.03451 | 0.82812 | 4401 ft | 251 kts | 88° |
| 2026-04-23 13:29 | 41.03815 | 0.85040 | 4292 ft | 247 kts | 70° |
| 2026-04-23 13:29 | 41.04533 | 0.87073 | 4162 ft | 240 kts | 66° |
| 2026-04-23 13:29 | 41.05280 | 0.89016 | 4059 ft | 233 kts | 66° |
| 2026-04-23 13:29 | 41.06007 | 0.90895 | 3876 ft | 229 kts | 67° |
| 2026-04-23 13:30 | 41.06717 | 0.92766 | 3628 ft | 225 kts | 67° |
| 2026-04-23 13:30 | 41.07406 | 0.94595 | 3376 ft | 220 kts | 66° |
| 2026-04-23 13:30 | 41.08081 | 0.96394 | 3157 ft | 217 kts | 68° |
| 2026-04-23 13:30 | 41.08742 | 0.98167 | 2934 ft | 212 kts | 67° |
| 2026-04-23 13:31 | 41.09387 | 0.99898 | 2681 ft | 207 kts | 67° |
| 2026-04-23 13:31 | 41.10016 | 1.01591 | 2416 ft | 201 kts | 67° |
| 2026-04-23 13:31 | 41.10624 | 1.03224 | 2210 ft | 195 kts | 67° |
| 2026-04-23 13:31 | 41.11208 | 1.04793 | 1959 ft | 184 kts | 68° |
| 2026-04-23 13:32 | 41.11713 | 1.06277 | 1774 ft | 171 kts | 72° |
| 2026-04-23 13:32 | 41.12132 | 1.07715 | 1543 ft | 162 kts | 72° |
| 2026-04-23 13:32 | 41.12522 | 1.09065 | 1349 ft | 151 kts | 71° |
| 2026-04-23 13:32 | 41.12880 | 1.10282 | 1182 ft | 135 kts | 72° |
| 2026-04-23 13:33 | 41.13216 | 1.11450 | 1011 ft | 135 kts | 73° |
| 2026-04-23 13:33 | 41.13539 | 1.12639 | 805 ft | 140 kts | 70° |
| 2026-04-23 13:33 | 41.13897 | 1.13845 | 580 ft | 140 kts | 73° |
| 2026-04-23 13:33 | 41.14246 | 1.15031 | 394 ft | 138 kts | 73° |
| 2026-04-23 13:34 | 41.14592 | 1.16206 | 242 ft | 134 kts | 70° |
| 2026-04-23 13:34 | 41.14858 | 1.17127 | 240 ft | 78 kts | 68° |
| 2026-04-23 13:34 | 41.14979 | 1.17537 | 240 ft | 20 kts | 68° |
| 2026-04-23 13:34 | 41.15041 | 1.17596 | 240 ft | 10 kts | 353° |
| 2026-04-23 13:35 | 41.15106 | 1.17567 | 240 ft | 10 kts | 339° |
| 2026-04-23 13:35 | 41.15143 | 1.17503 | 240 ft | 10 kts | 269° |
| 2026-04-23 13:35 | 41.15122 | 1.17416 | 240 ft | 11 kts | 248° |
| 2026-04-23 13:35 | 41.15089 | 1.17308 | 240 ft | 15 kts | 250° |
| 2026-04-23 13:36 | 41.15046 | 1.17159 | 241 ft | 20 kts | 248° |
| 2026-04-23 13:36 | 41.14995 | 1.16982 | 241 ft | 21 kts | 249° |
| 2026-04-23 13:36 | 41.14955 | 1.16849 | 241 ft | 20 kts | 248° |
| 2026-04-23 13:36 | 41.14906 | 1.16680 | 241 ft | 19 kts | 249° |
| 2026-04-23 13:37 | 41.14859 | 1.16520 | 241 ft | 19 kts | 249° |
| 2026-04-23 13:37 | 41.14813 | 1.16364 | 241 ft | 16 kts | 249° |
| 2026-04-23 13:37 | 41.14776 | 1.16236 | 241 ft | 14 kts | 248° |
| 2026-04-23 13:37 | 41.14740 | 1.16113 | 241 ft | 14 kts | 249° |
| 2026-04-23 13:38 | 41.14706 | 1.15997 | 241 ft | 13 kts | 249° |
| 2026-04-23 13:38 | 41.14677 | 1.15900 | 241 ft | 10 kts | 246° |
| 2026-04-23 13:38 | 41.14627 | 1.15870 | 241 ft | 6 kts | 169° |
| 2026-04-23 13:38 | 41.14610 | 1.15878 | 241 ft | 0 kts | 158° |
| 2026-04-23 13:39 | 41.14609 | 1.15879 | 241 ft | 1 kts | 158° |
| 2026-04-23 13:39 | 41.14578 | 1.15894 | 241 ft | 8 kts | 160° |
| 2026-04-23 13:40 | 41.14517 | 1.15910 | 241 ft | 10 kts | 200° |
| 2026-04-23 13:40 | 41.14482 | 1.15835 | 241 ft | 11 kts | 249° |
| 2026-04-23 13:40 | 41.14453 | 1.15735 | 241 ft | 12 kts | 249° |
| 2026-04-23 13:40 | 41.14434 | 1.15644 | 241 ft | 10 kts | 281° |
| 2026-04-23 13:41 | 41.14488 | 1.15594 | 241 ft | 10 kts | 340° |
| 2026-04-23 13:41 | 41.14549 | 1.15563 | 241 ft | 7 kts | 339° |
| 2026-04-23 13:41 | 41.14591 | 1.15532 | 241 ft | 7 kts | 331° |
| 2026-04-23 13:41 | 41.14624 | 1.15513 | 241 ft | 3 kts | 339° |
| 2026-04-23 13:42 | 41.14641 | 1.15504 | 241 ft | 1 kts | 339° |
| 2026-04-23 13:42 | 41.14645 | 1.15502 | 241 ft | 1 kts | 339° |
| 2026-04-23 13:42 | 41.14646 | 1.15502 | 241 ft | 0 kts | 338° |